Smithfield - 24 Hour Table
Date & TimeSolar
Radiation
(W/m²)
Wind
Speed
(mph)
Wind
Direction
(degrees)
Air
Temperature
(°F)
Relative
Humidity
(%)
Precipitation
(inches)
2019/08/25 21:00 0 4.3 39 71.2 38 0.00
2019/08/25 20:00 3 5.0 20 76.7 31 0.00
2019/08/25 19:00 89 3.8 23 80.0 26 0.00
2019/08/25 18:00 269 4.8 4 83.8 28 0.00
2019/08/25 17:00 459 5.8 349 86.4 20 0.00
2019/08/25 16:00 625 7.3 290 88.9 15 0.00
2019/08/25 15:00 706 7.7 276 89.1 15 0.00
2019/08/25 14:00 845 7.3 247 86.8 17 0.00
2019/08/25 13:00 862 7.1 233 85.5 18 0.00
2019/08/25 12:00 839 5.2 196 83.3 20 0.00
2019/08/25 11:00 759 3.4 257 82.1 19 0.00
2019/08/25 10:00 630 2.2 32 78.8 20 0.00
2019/08/25 09:00 460 2.2 201 69.3 37 0.00
2019/08/25 08:00 273 1.3 307 63.0 42 0.00
2019/08/25 07:00 57 2.3 60 58.6 53 0.00
2019/08/25 06:00 2 3.1 57 59.7 44 0.00
2019/08/25 05:00 0 4.3 52 58.8 41 0.00
2019/08/25 04:00 0 3.1 54 61.5 49 0.00
2019/08/25 03:00 0 3.0 79 62.5 36 0.00
2019/08/25 02:00 0 3.0 74 64.4 34 0.00
2019/08/25 01:00 0 2.5 58 66.8 32 0.00
2019/08/25 00:00 0 3.4 33 68.1 30 0.00
2019/08/24 23:00 0 3.5 36 69.1 34 0.00
2019/08/24 22:00 0 4.1 53 73.2 25 0.00